createdAt,value
2023-02-08T14:18:30.102Z,18.20
2023-02-08T14:21:04.403Z,22.50
2023-02-08T14:23:38.288Z,21.30
2023-02-08T14:26:20.053Z,27.40
2023-02-08T14:32:06.481Z,24.60
2023-02-08T14:34:39.137Z,24.40
2023-02-08T14:37:29.065Z,22.90
2023-02-08T14:40:42.350Z,24.20
2023-02-08T14:43:29.889Z,22.90
2023-02-08T14:46:19.493Z,21.10
2023-02-08T14:48:49.877Z,23.10
2023-02-08T14:51:24.898Z,25.10
2023-02-08T14:53:56.643Z,23.70
2023-02-08T14:56:28.111Z,22.70
2023-02-08T14:59:00.209Z,24.00
2023-02-08T15:01:43.926Z,24.00
2023-02-08T15:04:17.577Z,26.60
2023-02-08T15:07:17.701Z,24.60
2023-02-08T15:09:46.946Z,25.70
2023-02-08T15:12:22.647Z,27.00
2023-02-08T15:14:53.894Z,28.90
2023-02-08T15:17:33.030Z,29.90
2023-02-08T15:20:05.314Z,31.60
2023-02-08T15:22:37.294Z,37.70
2023-02-08T15:25:22.695Z,37.40
2023-02-08T15:27:53.836Z,54.80
2023-02-08T15:30:32.606Z,47.30
2023-02-08T15:33:08.348Z,47.60
2023-02-08T15:35:38.339Z,48.00
2023-02-08T15:38:15.583Z,49.30
2023-02-08T15:40:58.842Z,44.10
2023-02-08T15:43:27.809Z,34.00
2023-02-08T15:46:01.512Z,37.70
2023-02-08T15:48:32.520Z,42.20
2023-02-08T15:51:02.225Z,38.30
2023-02-08T15:53:31.784Z,42.70
2023-02-08T15:56:03.917Z,50.30
2023-02-08T15:58:36.166Z,64.20
2023-02-08T16:01:09.484Z,67.50
2023-02-08T16:03:38.403Z,64.40
2023-02-08T16:06:10.163Z,65.40
2023-02-08T16:08:42.815Z,80.40
2023-02-08T16:11:15.483Z,75.30
2023-02-08T16:13:49.347Z,90.10
2023-02-08T16:16:22.925Z,98.50
2023-02-08T16:18:58.303Z,104.00
2023-02-08T16:21:34.802Z,138.50
2023-02-08T16:24:21.779Z,118.40
2023-02-08T16:26:58.293Z,125.80
2023-02-08T16:29:35.700Z,131.40
2023-02-08T16:32:11.185Z,129.70
2023-02-08T16:34:42.197Z,115.90
2023-02-08T16:37:25.673Z,121.90
2023-02-08T16:39:56.007Z,117.10
2023-02-08T16:42:35.139Z,162.60
2023-02-08T16:45:20.085Z,257.70
2023-02-08T16:47:51.722Z,301.00
2023-02-08T16:50:22.848Z,305.70
2023-02-08T16:52:54.586Z,345.50
2023-02-08T16:55:26.593Z,383.00
2023-02-08T16:57:57.411Z,330.60
2023-02-08T17:00:28.456Z,319.20
2023-02-08T17:02:57.838Z,228.30
2023-02-08T17:05:30.447Z,215.90
2023-02-08T17:08:00.194Z,171.00
2023-02-08T17:10:31.200Z,130.60
2023-02-08T17:13:18.702Z,121.90
2023-02-08T17:15:50.508Z,91.90
2023-02-08T17:18:20.678Z,92.40
2023-02-08T17:20:56.724Z,110.40
2023-02-08T17:23:26.384Z,99.70
2023-02-08T17:25:56.688Z,108.00
2023-02-08T17:28:27.163Z,102.60
2023-02-08T17:30:56.166Z,105.40
2023-02-08T17:33:27.852Z,101.40
2023-02-08T17:35:56.596Z,105.10
2023-02-08T17:38:25.530Z,94.10
2023-02-08T17:40:54.907Z,99.80
2023-02-08T17:43:24.617Z,91.10
2023-02-08T17:45:53.435Z,98.80
2023-02-08T17:48:22.228Z,93.60
2023-02-08T17:50:52.988Z,96.20
2023-02-08T17:53:21.853Z,83.60
2023-02-08T17:55:51.814Z,79.40
2023-02-08T17:58:22.856Z,93.40
2023-02-08T18:00:51.722Z,87.30
2023-02-08T18:03:20.619Z,90.10
2023-02-08T18:05:59.152Z,80.70
2023-02-08T18:08:28.804Z,89.20
2023-02-08T18:11:03.914Z,100.00
2023-02-08T18:13:33.901Z,104.40
2023-02-08T18:16:12.604Z,94.90
2023-02-08T18:18:41.618Z,105.20
2023-02-08T18:21:11.990Z,106.60
2023-02-08T18:23:42.064Z,104.80
2023-02-08T18:26:14.151Z,95.80
2023-02-08T18:28:43.110Z,100.00
2023-02-08T18:31:14.903Z,120.30
2023-02-08T18:33:44.475Z,129.80
2023-02-08T18:36:15.044Z,124.70
2023-02-08T18:38:46.508Z,128.30
2023-02-08T18:41:18.150Z,116.40
2023-02-08T18:43:50.909Z,122.20
2023-02-08T18:46:21.942Z,141.70
2023-02-08T18:48:53.161Z,147.10
2023-02-08T18:51:23.945Z,168.30
2023-02-08T18:53:54.840Z,169.30
2023-02-08T18:56:32.490Z,183.40
2023-02-08T18:59:01.927Z,182.00
2023-02-08T19:01:30.826Z,189.50
2023-02-08T19:03:59.732Z,197.70
2023-02-08T19:06:31.022Z,164.30
2023-02-08T19:09:02.965Z,193.60
2023-02-08T19:11:34.199Z,214.80
2023-02-08T19:14:05.368Z,218.10
2023-02-08T19:16:36.642Z,258.80
2023-02-08T19:19:07.122Z,255.30
2023-02-08T19:24:04.699Z,219.30
2023-02-08T19:26:38.914Z,240.20
2023-02-08T19:29:13.118Z,229.30
2023-02-08T19:31:43.251Z,245.70
2023-02-08T19:34:12.641Z,217.20
2023-02-08T19:36:43.947Z,230.50
2023-02-08T19:39:18.296Z,215.90
2023-02-08T19:41:47.775Z,208.30
2023-02-08T19:44:21.725Z,185.50
2023-02-08T19:46:53.010Z,180.30
2023-02-08T19:49:23.122Z,186.20
2023-02-08T19:51:52.886Z,216.80
2023-02-08T19:54:22.061Z,201.70
2023-02-08T19:56:54.060Z,201.10
2023-02-08T19:59:26.003Z,191.60
2023-02-08T20:01:55.393Z,226.40
2023-02-08T20:04:24.656Z,232.80
2023-02-08T20:06:54.089Z,206.30
2023-02-08T20:09:22.955Z,225.20
2023-02-08T20:11:56.987Z,212.00
2023-02-08T20:14:28.437Z,207.50
2023-02-08T20:16:57.608Z,223.60
2023-02-08T20:19:27.726Z,210.50
2023-02-08T20:24:24.423Z,162.00
2023-02-08T20:26:53.287Z,171.80
2023-02-08T20:29:22.101Z,165.70
2023-02-08T20:31:54.897Z,168.70
2023-02-08T20:34:24.615Z,145.20
2023-02-08T20:37:06.269Z,135.70
2023-02-08T20:39:41.084Z,158.30
2023-02-08T20:42:10.210Z,159.00
2023-02-08T20:44:45.072Z,156.80
2023-02-08T20:47:18.513Z,142.00
2023-02-08T20:49:51.257Z,134.00
2023-02-08T20:52:20.157Z,117.00
2023-02-08T20:54:48.998Z,133.80
2023-02-08T20:57:17.852Z,141.30
2023-02-08T20:59:49.595Z,130.90
2023-02-08T21:02:21.246Z,120.80
2023-02-08T21:04:50.496Z,141.10
2023-02-08T21:07:19.608Z,126.40
2023-02-08T21:09:48.939Z,146.70
2023-02-08T21:12:18.301Z,147.20
2023-02-08T21:14:47.398Z,151.80
2023-02-08T21:17:16.534Z,121.90
2023-02-08T21:19:47.058Z,129.40
2023-02-08T21:22:18.929Z,143.20
2023-02-08T21:24:47.777Z,129.20
2023-02-08T21:27:18.506Z,126.20
2023-02-08T21:29:51.310Z,124.40
2023-02-08T21:32:20.201Z,126.60
2023-02-08T21:34:51.498Z,122.30
2023-02-08T21:37:22.745Z,129.70
2023-02-08T21:39:51.611Z,129.30
2023-02-08T21:42:20.488Z,131.40
2023-02-08T21:44:49.345Z,120.50
2023-02-08T21:47:18.151Z,123.00
2023-02-08T21:50:06.623Z,131.40
2023-02-08T21:52:53.963Z,130.00
2023-02-08T21:55:22.827Z,118.40
2023-02-08T21:57:51.590Z,135.10
2023-02-08T22:00:20.417Z,127.50
2023-02-08T22:02:49.301Z,127.60
2023-02-08T22:05:37.326Z,153.00
2023-02-08T22:08:06.468Z,133.80
2023-02-08T22:10:35.392Z,132.30
2023-02-08T22:13:04.485Z,133.90
2023-02-08T22:15:34.424Z,147.30
2023-02-08T22:18:04.225Z,171.20
2023-02-08T22:20:33.622Z,165.00
2023-02-08T22:23:02.775Z,143.10
2023-02-08T22:25:31.978Z,154.90
2023-02-08T22:28:01.067Z,160.10
2023-02-08T22:30:30.587Z,152.80
2023-02-08T22:32:59.491Z,149.10
2023-02-08T22:35:29.199Z,151.70
2023-02-08T22:37:58.036Z,160.50
2023-02-08T22:40:26.919Z,166.70
2023-02-08T22:42:55.956Z,151.60
2023-02-08T22:45:24.942Z,161.90
2023-02-08T22:47:53.735Z,154.80
2023-02-08T22:50:22.776Z,169.30
2023-02-08T22:52:51.771Z,194.80
2023-02-08T22:55:20.867Z,242.20
2023-02-08T22:57:49.880Z,214.30
2023-02-08T23:00:18.976Z,201.10
2023-02-08T23:02:49.279Z,217.60
2023-02-08T23:05:18.917Z,219.60
2023-02-08T23:07:48.162Z,159.40
2023-02-08T23:10:17.203Z,198.10
2023-02-08T23:12:46.217Z,184.00
2023-02-08T23:15:15.521Z,189.70
2023-02-08T23:20:58.378Z,146.20
2023-02-08T23:23:31.064Z,176.70
2023-02-08T23:26:07.224Z,171.10
2023-02-08T23:28:39.969Z,153.60
2023-02-08T23:31:17.280Z,157.00
2023-02-08T23:33:50.294Z,150.50
2023-02-08T23:36:24.498Z,151.40
2023-02-08T23:38:56.928Z,148.40
2023-02-08T23:41:29.475Z,132.50
2023-02-08T23:44:01.998Z,142.70
2023-02-08T23:46:35.120Z,131.50
2023-02-08T23:49:07.698Z,136.00
2023-02-08T23:51:40.135Z,131.70
2023-02-08T23:54:13.854Z,145.40
2023-02-08T23:56:47.141Z,135.00
2023-02-08T23:59:23.034Z,121.10
